Flight Track Log - Related Links

Times and Time Zones

All times are in EDT time to prevent confusion due to time zone crossing. See the N830QS flight status page for this flight to view local times or setup timezone preferences in your user account.

Time Position Orientation Groundspeed Altitude Reporting Facility
EDT Latitude Longitude Course Direction KTS MPH feet Rate Location/Type
Thu 10:29:20 AM 25.0092 -77.3953 242° Southwest 322 371 5,500  Level Miami Center
Thu 10:30:20 AM 24.9797 -77.4572 242° Southwest 185 213 9,700 3,350 Climbing Miami Center
Thu 10:31:20 AM 24.9919 -77.5444 279° West 195 224 12,200 2,500 Climbing Miami Center
Thu 10:32:20 AM 25.0061 -77.6478 279° West 266 306 14,700 1,900 Climbing Miami Center
Thu 10:33:20 AM 25.0097 -77.7556 272° West 320 368 16,000 650 Climbing Miami Center
Thu 10:34:20 AM 25.0131 -77.8656 272° West 348 400 16,000  Level Miami Center
Thu 10:35:20 AM 25.0333 -77.9758 281° West 365 420 16,000  Level Miami Center
Thu 10:36:20 AM 25.0553 -78.0792 283° West 365 420 16,000 50 Level Miami Center
Thu 10:37:20 AM 25.0797 -78.1828 285° West 354 407 16,100  Climbing Miami Center
Thu 10:38:20 AM 25.0994 -78.2886 282° West 354 407 16,000 -50 Descending Miami Center
Thu 10:39:20 AM 25.1214 -78.3944 283° West 354 407 16,000  Level Miami Center
Thu 10:40:20 AM 25.1433 -78.4981 283° West 354 407 16,000  Level Miami Center
Thu 10:41:20 AM 25.1653 -78.5992 284° West 354 407 16,000  Level Miami Center
Thu 10:42:20 AM 25.2078 -78.6964 296° West 349 402 16,000  Level Miami Center
Thu 10:43:20 AM 25.2483 -78.7933 295° West 349 402 16,000  Level Miami Center
Thu 10:44:20 AM 25.2386 -78.8989 264° West 335 386 16,000 -150 Level Miami Center
Thu 10:45:20 AM 25.2497 -79.0072 276° West 345 397 15,700 -900 Descending Miami Center
Thu 10:46:20 AM 25.2692 -79.1039 283° West 350 403 14,200 -1,450 Descending Miami Center
Thu 10:47:20 AM 25.2864 -79.1961 282° West 332 382 12,800 -1,100 Descending Miami Center
Thu 10:48:20 AM 25.3186 -79.2794 293° West 313 360 12,000 -400 Descending Miami Center
Thu 10:49:20 AM 25.3525 -79.3675 293° West 307 353 12,000  Level Miami Center
Thu 10:50:20 AM 25.3908 -79.4581 295° West 312 359 12,000  Level Miami Center
Thu 10:50:59 AM 25.4042 -79.5206 283° West 315 362 12,000  Level Miami Center
Thu 10:51:12 AM 25.4039 -79.5342 269° West 314 361 12,000  Level Miami Center
Thu 10:51:32 AM 25.4139 -79.5689 288° West 317 365 12,000  Level Miami Center
Thu 10:52:13 AM 25.4167 -79.6381 273° West 326 375 12,000  Level Miami Center
Thu 10:52:32 AM 25.4225 -79.6658 283° West 312 359 12,000  Level Miami Center
Thu 10:53:14 AM 25.4211 -79.7325 269° West 317 365 12,000  Level Miami Center
Thu 10:53:32 AM 25.4206 -79.7622 269° West 312 359 12,000  Level Miami Center
Thu 10:54:15 AM 25.4172 -79.8289 267° West 316 364 12,000 -300 Level Miami Center
Thu 10:54:32 AM 25.4333 -79.8547 305° West 312 359 11,700 -1,082 Descending Miami Center
Thu 10:55:16 AM 25.4658 -79.9014 308° West 279 321 10,900 -1,400 Descending Miami Center
Thu 10:55:32 AM 25.4842 -79.9203 317° Northwest 284 327 10,300 -1,672 Descending Miami Center
Thu 10:56:17 AM 25.5250 -79.9744 310° West 292 336 9,200 -1,300 Descending Miami Center
Thu 10:56:32 AM 25.5414 -79.9864 327° Northwest 290 334 9,000 -160 Descending Miami Center
Thu 10:57:32 AM 25.5961 -80.0569 311° West 295 339 9,000  Level Miami Center
Thu 10:58:19 AM 25.6347 -80.1108 308° West 294 338 9,000  Level Miami Center
Thu 10:58:32 AM 25.6511 -80.1206 332° Northwest 295 339 9,000 -98 Level Miami Center
Thu 10:59:20 AM 25.6792 -80.1836 296° West 297 342 8,900 -500 Descending Miami Center
Thu 10:59:32 AM 25.6869 -80.2022 295° West 295 339 8,500 -885 Descending Miami Center
Thu 11:00:21 AM 25.6981 -80.2647 281° West 257 296 8,000 -600 Descending Miami Center
Thu 11:00:32 AM 25.7061 -80.2789 302° West 280 322 7,900 -1,672 Descending Miami Center
Thu 11:01:22 AM 25.7086 -80.3503 272° West 271 312 6,300 -1,946 Descending Miami Center
Thu 11:02:23 AM 25.7150 -80.4336 275° West 273 314 4,300 -2,016 Descending Miami Center
Thu 11:03:24 AM 25.7772 -80.4514 346° North 249 287 2,200 -1,377 Descending Miami Center
Thu 11:04:25 AM 25.7975 -80.3944 68° East 191 220 1,500 -590 Descending Miami Center
Thu 11:05:26 AM 25.7983 -80.3553 89° East 97 112 1,000 -590 Descending Miami Center
Thu 11:06:27 AM 25.8014 -80.3183 85° East 106 122 300 -689 Descending Miami Center
Thu 11:08:00 AM 25.7954 -80.2901 90° East  Level Estimated
Thu 11:15:00 AM 25.7954 -80.2901 90° East  Level Estimated

Login

Don't have an account? Register now (free) for customized features, flight alerts, and more!